Time;durP1;ratioP1;P1;durP2;ratioP2;P2;SDS_P1;SDS_P2;PMS_P1;PMS_P2;Temp;Humidity;BMP_temperature;BMP_pressure;BME280_temperature;BME280_humidity;BME280_pressure;Samples;Min_cycle;Max_cycle;Signal;HPM_P1;HPM_P2
2022/05/30 00:02:10;;;;;;;;;;;;;;;12.61;62.01;99868.75;4921438;29;1305;-95
2022/05/30 00:04:36;;;;;;;;;;;;;;;12.61;61.83;99868.75;4911301;29;1167;-95
2022/05/30 00:07:03;;;;;;;;;;;;;;;12.60;61.98;99869.00;4902744;29;1155;-94
2022/05/30 00:09:29;;;;;;;;;;;;;;;12.59;62.00;99870.91;4902941;29;1911;-94
2022/05/30 00:11:56;;;;;;;;;;;;;;;12.59;62.05;99873.59;4902872;29;1213;-94
2022/05/30 00:14:23;;;;;;;;;;;;;;;12.60;61.84;99877.13;4921630;29;1190;-95
2022/05/30 00:16:49;;;;;;;;;;;;;;;12.58;61.86;99873.84;4921510;29;1292;-95
2022/05/30 00:19:16;;;;;;;;;;;;;;;12.59;62.09;99880.84;4921287;29;1287;-95
2022/05/30 00:21:44;;;;;;;;;;;;;;;12.57;61.99;99880.31;4921900;29;1207;-95
2022/05/30 00:24:11;;;;;;;;;;;;;;;12.56;62.07;99879.50;4921628;29;1284;-95
2022/05/30 00:26:37;;;;;;;;;;;;;;;12.56;62.08;99886.75;4921557;29;1322;-95
2022/05/30 00:29:04;;;;;;;;;;;;;;;12.56;61.76;99884.06;4921230;29;1194;-95
2022/05/30 00:31:30;;;;;;;;;;;;;;;12.55;61.91;99885.13;4920584;29;1991;-94
2022/05/30 00:33:57;;;;;;;;;;;;;;;12.54;61.98;99891.63;4920310;29;1685;-95
2022/05/30 00:36:23;;;;;;;;;;;;;;;12.54;61.89;99892.44;4920849;29;1194;-94
2022/05/30 00:38:50;;;;;;;;;;;;;;;12.54;61.85;99888.91;4921013;29;1288;-95
2022/05/30 00:41:16;;;;;;;;;;;;;;;12.54;62.00;99895.13;4920532;29;1635;-95
2022/05/30 00:43:44;;;;;;;;;;;;;;;12.53;61.70;99895.38;4921132;29;1262;-95
2022/05/30 00:46:12;;;;;;;;;;;;;;;12.52;61.90;99896.44;4921162;29;1147;-95
2022/05/30 00:48:39;;;;;;;;;;;;;;;12.51;61.77;99890.22;4921337;29;1392;-95
2022/05/30 00:51:05;;;;;;;;;;;;;;;12.50;61.85;99894.81;4920634;29;1902;-95
2022/05/30 00:53:34;;;;;;;;;;;;;;;12.53;61.77;99898.06;4910881;29;1431;-95
2022/05/30 00:56:00;;;;;;;;;;;;;;;12.49;61.65;99890.47;4901121;29;1358;-95
2022/05/30 00:58:27;;;;;;;;;;;;;;;12.49;61.88;99890.47;4920964;29;1187;-95
2022/05/30 01:00:53;;;;;;;;;;;;;;;12.49;61.76;99900.44;4920712;29;1272;-95
2022/05/30 01:08:48;;;;;;;;;;;;;;;12.47;61.66;99903.41;4903204;29;1378;-95
2022/05/30 01:11:15;;;;;;;;;;;;;;;12.46;61.85;99904.47;4920664;29;1910;-95
2022/05/30 01:13:41;;;;;;;;;;;;;;;12.45;61.82;99905.53;4920463;29;1244;-94
2022/05/30 01:16:08;;;;;;;;;;;;;;;12.45;61.64;99913.63;4921150;29;1194;-95
2022/05/30 01:18:34;;;;;;;;;;;;;;;12.45;61.73;99913.63;4920571;29;1256;-95
2022/05/30 01:21:01;;;;;;;;;;;;;;;12.45;61.87;99912.81;4920711;29;1187;-94
2022/05/30 01:23:27;;;;;;;;;;;;;;;12.44;61.77;99911.16;4903880;29;1476;-94
2022/05/30 01:25:54;;;;;;;;;;;;;;;12.44;61.76;99912.00;4921916;29;1191;-95
2022/05/30 01:28:20;;;;;;;;;;;;;;;12.44;61.57;99913.88;4915729;29;2074;-94
2022/05/30 01:30:47;;;;;;;;;;;;;;;12.43;61.87;99917.66;4911105;29;2091;-94
2022/05/30 01:33:14;;;;;;;;;;;;;;;12.43;61.66;99917.66;4920554;29;1040;-95
2022/05/30 01:35:41;;;;;;;;;;;;;;;12.42;61.70;99911.44;4919239;29;1695;-95
2022/05/30 01:38:07;;;;;;;;;;;;;;;12.41;61.59;99917.06;4920722;29;1284;-95
2022/05/30 01:40:34;;;;;;;;;;;;;;;12.40;61.83;99918.94;4901846;29;1918;-95
2022/05/30 01:43:00;;;;;;;;;;;;;;;12.41;61.72;99925.16;4911615;29;2123;-94
2022/05/30 01:45:27;;;;;;;;;;;;;;;12.41;61.67;99930.56;4917079;29;1953;-94
2022/05/30 01:47:54;;;;;;;;;;;;;;;12.38;61.61;99921.09;4916019;29;1566;-94
2022/05/30 01:50:21;;;;;;;;;;;;;;;12.38;61.66;99923.81;4901282;29;1910;-95
2022/05/30 01:52:47;;;;;;;;;;;;;;;12.38;61.69;99920.25;4901253;29;2116;-94
2022/05/30 01:55:14;;;;;;;;;;;;;;;12.37;61.47;99929.44;4910494;29;2025;-95
2022/05/30 01:57:40;;;;;;;;;;;;;;;12.37;61.68;99921.34;4913177;29;2194;-95
2022/05/30 02:00:07;;;;;;;;;;;;;;;12.37;61.82;99926.75;4918956;29;2700;-94
2022/05/30 02:02:33;;;;;;;;;;;;;;;12.36;61.53;99927.81;4931981;29;2317;-94
2022/05/30 02:05:00;;;;;;;;;;;;;;;12.36;61.55;99930.50;4911892;29;2142;-95
2022/05/30 02:07:26;;;;;;;;;;;;;;;12.34;61.62;99930.75;4922115;29;2088;-95
2022/05/30 02:09:53;;;;;;;;;;;;;;;12.35;61.55;99939.66;4919575;29;1898;-96
2022/05/30 02:12:19;;;;;;;;;;;;;;;12.34;61.66;99930.75;4916542;29;2488;-94
2022/05/30 02:14:46;;;;;;;;;;;;;;;12.34;61.50;99935.34;4920255;29;2048;-95
2022/05/30 02:17:11;;;;;;;;;;;;;;;12.33;61.53;99944.50;4920259;29;2593;-95
2022/05/30 02:19:38;;;;;;;;;;;;;;;12.32;61.49;99954.47;4923161;29;1590;-95
2022/05/30 02:22:05;;;;;;;;;;;;;;;12.32;61.44;99940.97;4922548;29;1759;-95
2022/05/30 02:24:31;;;;;;;;;;;;;;;12.31;61.67;99939.34;4922148;29;2148;-94
2022/05/30 02:26:58;;;;;;;;;;;;;;;12.30;61.48;99948.50;4922359;29;1853;-94
2022/05/30 02:29:24;;;;;;;;;;;;;;;12.30;61.67;99948.50;4919809;29;2480;-95
2022/05/30 02:31:51;;;;;;;;;;;;;;;12.30;61.37;99948.50;4907075;29;1990;-95
2022/05/30 02:37:01;;;;;;;;;;;;;;;12.28;61.47;99946.03;4908792;29;2135;-94
2022/05/30 02:39:29;;;;;;;;;;;;;;;12.30;61.45;99958.50;4913288;29;1958;-95
2022/05/30 02:41:55;;;;;;;;;;;;;;;12.29;61.53;99954.97;4911832;29;2210;-94
2022/05/30 02:44:22;;;;;;;;;;;;;;;12.27;61.66;99960.63;4909646;29;2635;-95
2022/05/30 02:46:48;;;;;;;;;;;;;;;12.28;61.56;99950.63;4905532;29;1835;-94
2022/05/30 02:49:15;;;;;;;;;;;;;;;12.26;61.38;99955.44;4920137;29;2036;-94
2022/05/30 02:51:42;;;;;;;;;;;;;;;12.26;61.52;99958.16;4922824;29;1891;-95
2022/05/30 02:54:08;;;;;;;;;;;;;;;12.25;61.46;99962.72;4922975;29;1391;-94
2022/05/30 02:56:35;;;;;;;;;;;;;;;12.26;61.56;99960.84;4920707;29;1390;-94
2022/05/30 02:59:01;;;;;;;;;;;;;;;12.25;61.43;99970.84;4923093;29;1352;-95
2022/05/30 03:01:31;;;;;;;;;;;;;;;12.24;61.33;99971.91;4922640;29;1279;-94
2022/05/30 03:03:58;;;;;;;;;;;;;;;12.23;61.48;99981.06;4917506;29;1277;-95
2022/05/30 03:06:24;;;;;;;;;;;;;;;12.23;61.47;99985.63;4920316;29;1191;-95
2022/05/30 03:08:51;;;;;;;;;;;;;;;12.22;61.54;99979.44;4922347;29;2094;-94
2022/05/30 03:11:18;;;;;;;;;;;;;;;12.22;61.35;99982.13;4918760;29;2145;-95
2022/05/30 03:13:44;;;;;;;;;;;;;;;12.22;61.35;99981.31;4903319;29;1920;-95
2022/05/30 03:16:11;;;;;;;;;;;;;;;12.21;61.38;99982.38;4914993;29;1634;-95
2022/05/30 03:18:38;;;;;;;;;;;;;;;12.21;61.46;99985.09;4910444;29;1804;-94
2022/05/30 03:21:05;;;;;;;;;;;;;;;12.21;61.39;99993.19;4911978;29;2585;-95
2022/05/30 03:23:31;;;;;;;;;;;;;;;12.20;61.52;99994.22;4907859;29;2075;-94
2022/05/30 03:25:58;;;;;;;;;;;;;;;12.19;61.28;99998.81;4913853;29;2048;-95
2022/05/30 03:28:25;;;;;;;;;;;;;;;12.18;61.25;99997.19;4918390;29;2798;-95
2022/05/30 03:30:51;;;;;;;;;;;;;;;12.18;61.47;99993.66;4913678;29;2114;-94
2022/05/30 03:33:18;;;;;;;;;;;;;;;12.18;61.14;99999.06;4918580;29;2259;-95
2022/05/30 03:35:44;;;;;;;;;;;;;;;12.17;61.34;100000.94;4913849;29;2076;-94
2022/05/30 03:38:11;;;;;;;;;;;;;;;12.17;61.19;99992.81;4914806;29;2208;-94
2022/05/30 03:40:38;;;;;;;;;;;;;;;12.16;61.28;99998.50;4918606;29;1710;-95
2022/05/30 03:43:07;;;;;;;;;;;;;;;12.16;61.21;100007.41;4935186;29;2032;-94
2022/05/30 03:45:34;;;;;;;;;;;;;;;12.15;61.35;100003.06;4917562;29;1652;-95
2022/05/30 03:48:00;;;;;;;;;;;;;;;12.15;61.31;100013.88;4918336;29;1940;-94
2022/05/30 03:50:26;;;;;;;;;;;;;;;12.15;61.25;100007.66;4913487;29;2357;-95
2022/05/30 03:52:53;;;;;;;;;;;;;;;12.14;61.17;100014.91;4907042;29;2187;-95
2022/05/30 03:55:20;;;;;;;;;;;;;;;12.14;61.32;100012.22;4917968;29;2233;-95
2022/05/30 03:57:46;;;;;;;;;;;;;;;12.14;61.25;100014.91;4923920;29;2780;-96
2022/05/30 04:00:13;;;;;;;;;;;;;;;12.13;61.18;100020.56;4919744;29;1992;-94
2022/05/30 04:02:39;;;;;;;;;;;;;;;12.13;61.36;100032.19;4923544;29;1871;-95
2022/05/30 04:05:06;;;;;;;;;;;;;;;12.13;61.15;100028.66;4919271;29;2037;-94
2022/05/30 04:07:32;;;;;;;;;;;;;;;12.12;61.28;100035.09;4904148;29;2171;-94
2022/05/30 04:09:59;;;;;;;;;;;;;;;12.12;61.11;100040.50;4917968;29;2221;-95
2022/05/30 04:12:26;;;;;;;;;;;;;;;12.10;61.32;100046.16;4915746;29;2000;-94
2022/05/30 04:14:52;;;;;;;;;;;;;;;12.11;61.09;100047.78;4917434;29;1969;-95
2022/05/30 04:17:19;;;;;;;;;;;;;;;12.11;61.13;100047.78;4935654;29;2097;-95
2022/05/30 04:19:45;;;;;;;;;;;;;;;12.11;61.26;100057.78;4921066;29;1662;-94
2022/05/30 04:22:12;;;;;;;;;;;;;;;12.10;61.30;100053.44;4915786;29;1526;-95
2022/05/30 04:24:38;;;;;;;;;;;;;;;12.10;61.18;100064.25;4919549;29;2089;-94
2022/05/30 04:27:05;;;;;;;;;;;;;;;12.08;61.32;100059.06;4902391;29;2222;-95
2022/05/30 04:29:32;;;;;;;;;;;;;;;12.09;61.00;100067.97;4903337;29;2136;-93
2022/05/30 04:31:58;;;;;;;;;;;;;;;12.08;61.20;100071.75;4919055;29;1977;-94
2022/05/30 04:34:25;;;;;;;;;;;;;;;12.08;61.00;100072.56;4914322;29;2149;-95
2022/05/30 04:36:51;;;;;;;;;;;;;;;12.07;61.22;100073.63;4920864;29;1628;-95
2022/05/30 04:39:18;;;;;;;;;;;;;;;12.07;61.13;100081.72;4920433;29;2265;-93
2022/05/30 04:41:44;;;;;;;;;;;;;;;12.08;61.20;100077.16;4918029;29;2044;-94
2022/05/30 04:44:11;;;;;;;;;;;;;;;12.07;61.00;100080.91;4904057;29;2219;-94
2022/05/30 04:46:37;;;;;;;;;;;;;;;12.06;61.11;100080.09;4931291;29;1929;-94
2022/05/30 04:49:04;;;;;;;;;;;;;;;12.07;60.97;100089.84;4915541;29;2396;-95
2022/05/30 04:51:31;;;;;;;;;;;;;;;12.05;61.15;100095.47;4914276;29;2122;-94
2022/05/30 04:53:57;;;;;;;;;;;;;;;12.05;61.01;100097.34;4918294;29;2267;-94
2022/05/30 04:56:24;;;;;;;;;;;;;;;12.05;60.96;100089.25;4918885;29;2091;-94
2022/05/30 04:58:50;;;;;;;;;;;;;;;12.05;61.08;100091.94;4920509;29;1574;-94
2022/05/30 05:01:17;;;;;;;;;;;;;;;12.04;60.89;100096.53;4902477;29;2006;-94
2022/05/30 05:03:43;;;;;;;;;;;;;;;12.05;60.78;100100.03;4901955;29;1579;-94
2022/05/30 05:06:10;;;;;;;;;;;;;;;12.05;60.88;100100.84;4901731;29;2229;-93
2022/05/30 05:08:37;;;;;;;;;;;;;;;12.05;60.83;100108.13;4916236;29;1875;-93
2022/05/30 05:11:03;;;;;;;;;;;;;;;12.05;60.83;100113.53;4913500;29;1903;-93
2022/05/30 05:13:30;;;;;;;;;;;;;;;12.05;60.92;100118.94;4905621;29;2112;-94
2022/05/30 05:15:57;;;;;;;;;;;;;;;12.06;60.58;100120.59;4912010;29;2321;-93
2022/05/30 05:18:23;;;;;;;;;;;;;;;12.05;60.62;100118.94;4919981;29;2219;-94
2022/05/30 05:20:50;;;;;;;;;;;;;;;12.04;60.73;100120.81;4915974;29;2087;-94
2022/05/30 05:23:16;;;;;;;;;;;;;;;12.03;60.74;100130.00;4910884;29;2099;-94
2022/05/30 05:25:43;;;;;;;;;;;;;;;12.06;60.82;100128.69;4919792;29;2072;-94
2022/05/30 05:28:09;;;;;;;;;;;;;;;12.05;60.88;100143.22;4917703;29;2260;-93
2022/05/30 05:30:36;;;;;;;;;;;;;;;12.06;60.64;100144.88;4915954;29;2166;-94
2022/05/30 05:33:03;;;;;;;;;;;;;;;12.05;60.78;100146.75;4901802;29;1899;-93
2022/05/30 05:35:29;;;;;;;;;;;;;;;12.05;60.66;100151.31;4913257;29;2007;-94
2022/05/30 05:37:56;;;;;;;;;;;;;;;12.05;60.82;100154.84;4901798;29;1212;-93
2022/05/30 05:40:23;;;;;;;;;;;;;;;12.05;60.65;100157.53;4913167;29;2282;-94
2022/05/30 05:42:49;;;;;;;;;;;;;;;12.06;60.84;100166.47;4919707;29;1994;-94
2022/05/30 05:45:15;;;;;;;;;;;;;;;12.05;60.84;100162.94;4921299;29;1329;-95
2022/05/30 05:47:42;;;;;;;;;;;;;;;12.05;60.84;100162.94;4919620;29;2526;-94
2022/05/30 05:50:10;;;;;;;;;;;;;;;12.06;60.64;100171.88;4924306;29;1588;-93
2022/05/30 05:52:37;;;;;;;;;;;;;;;12.07;60.75;100172.69;4924135;29;1919;-94
2022/05/30 05:55:03;;;;;;;;;;;;;;;12.06;60.79;100174.56;4924527;29;1194;-93
2022/05/30 05:57:30;;;;;;;;;;;;;;;12.05;60.63;100176.44;4918956;29;2084;-94
2022/05/30 05:59:56;;;;;;;;;;;;;;;12.07;60.71;100176.22;4917875;29;1873;-93
2022/05/30 06:02:23;;;;;;;;;;;;;;;12.07;60.65;100180.78;4915462;29;1612;-93
2022/05/30 06:04:52;;;;;;;;;;;;;;;12.07;60.51;100184.31;4920529;29;1878;-93
2022/05/30 06:07:18;;;;;;;;;;;;;;;12.07;60.59;100195.09;4916584;29;2082;-93
2022/05/30 06:09:45;;;;;;;;;;;;;;;12.07;60.63;100191.59;4931975;29;1873;-94
2022/05/30 06:12:11;;;;;;;;;;;;;;;12.07;60.64;100197.81;4904888;29;2236;-93
2022/05/30 06:14:38;;;;;;;;;;;;;;;12.08;60.65;100204.00;4904762;29;2044;-94
2022/05/30 06:17:04;;;;;;;;;;;;;;;12.09;60.61;100203.78;4917024;29;1859;-93
2022/05/30 06:19:31;;;;;;;;;;;;;;;12.07;60.62;100200.50;4920661;29;1968;-94
2022/05/30 06:21:57;;;;;;;;;;;;;;;12.08;60.35;100217.50;4909116;29;1904;-93
2022/05/30 06:24:24;;;;;;;;;;;;;;;12.07;60.60;100211.28;4907089;29;1973;-94
2022/05/30 06:26:50;;;;;;;;;;;;;;;12.08;60.57;100222.91;4919610;29;2087;-93
2022/05/30 06:29:17;;;;;;;;;;;;;;;12.08;60.59;100217.50;4913434;29;2497;-94
2022/05/30 06:31:44;;;;;;;;;;;;;;;12.07;60.57;100219.41;4907585;29;2274;-94
2022/05/30 06:34:10;;;;;;;;;;;;;;;12.09;60.49;100221.84;4925877;29;1545;-93
2022/05/30 06:36:37;;;;;;;;;;;;;;;12.08;60.60;100229.13;4922910;29;2095;-93
2022/05/30 06:39:03;;;;;;;;;;;;;;;12.08;60.64;100226.41;4938129;29;1898;-93
2022/05/30 06:41:30;;;;;;;;;;;;;;;12.09;60.59;100232.63;4906911;29;2072;-93
2022/05/30 06:43:57;;;;;;;;;;;;;;;12.09;60.58;100243.44;4921173;29;2094;-94
2022/05/30 06:46:23;;;;;;;;;;;;;;;12.08;60.58;100236.41;4912940;29;2627;-93
2022/05/30 06:48:54;;;;;;;;;;;;;;;12.09;60.33;100246.97;4917266;29;1955;-94
2022/05/30 06:51:21;;;;;;;;;;;;;;;12.10;60.52;100250.50;4936599;29;2299;-93
2022/05/30 06:53:47;;;;;;;;;;;;;;;12.11;60.44;100249.44;4929224;29;2232;-93
2022/05/30 06:56:14;;;;;;;;;;;;;;;12.10;60.37;100247.78;4914725;29;1613;-93
2022/05/30 06:58:41;;;;;;;;;;;;;;;12.10;60.50;100251.31;4917278;29;1956;-93
2022/05/30 07:01:07;;;;;;;;;;;;;;;12.10;60.47;100254.00;4920225;29;2082;-93
2022/05/30 07:03:34;;;;;;;;;;;;;;;12.11;60.50;100249.44;4910139;29;2104;-93
2022/05/30 07:06:01;;;;;;;;;;;;;;;12.11;60.35;100257.53;4918732;29;2058;-92
2022/05/30 07:08:28;;;;;;;;;;;;;;;12.11;60.61;100265.63;4922053;29;2154;-94
2022/05/30 07:10:55;;;;;;;;;;;;;;;12.10;60.60;100262.09;4916116;29;1488;-93
2022/05/30 07:13:21;;;;;;;;;;;;;;;12.10;60.56;100267.50;4906943;29;2259;-93
2022/05/30 07:15:49;;;;;;;;;;;;;;;12.10;60.55;100270.22;4919224;29;2064;-93
2022/05/30 07:18:15;;;;;;;;;;;;;;;12.11;60.43;100271.84;4917125;29;1712;-94
2022/05/30 07:20:42;;;;;;;;;;;;;;;12.12;60.37;100276.19;4920982;29;2078;-93
2022/05/30 07:23:10;;;;;;;;;;;;;;;12.13;60.46;100271.63;4935378;29;1968;-93
2022/05/30 07:25:37;;;;;;;;;;;;;;;12.12;60.39;100273.50;4909146;29;2795;-94
2022/05/30 07:28:04;;;;;;;;;;;;;;;12.12;60.47;100275.34;4916693;29;2148;-92
2022/05/30 07:30:30;;;;;;;;;;;;;;;12.12;60.55;100276.19;4911276;29;2208;-93
2022/05/30 07:32:57;;;;;;;;;;;;;;;12.13;60.51;100277.00;4914115;29;2280;-93
2022/05/30 07:35:23;;;;;;;;;;;;;;;12.13;60.42;100282.41;4920711;29;2174;-93
2022/05/30 07:37:49;;;;;;;;;;;;;;;12.12;60.40;100281.59;4935841;29;2090;-93
2022/05/30 07:40:16;;;;;;;;;;;;;;;12.16;60.52;100290.03;4921000;29;1544;-93
2022/05/30 07:42:42;;;;;;;;;;;;;;;12.14;60.40;100292.97;4921163;29;2129;-93
2022/05/30 07:45:09;;;;;;;;;;;;;;;12.16;60.53;100303.53;4907785;29;1689;-93
2022/05/30 07:47:35;;;;;;;;;;;;;;;12.15;60.37;100308.13;4918141;29;2167;-94
2022/05/30 07:50:03;;;;;;;;;;;;;;;12.15;60.39;100310.81;4911086;29;1969;-93
2022/05/30 07:52:30;;;;;;;;;;;;;;;12.16;60.55;100307.06;4902995;29;1973;-94
2022/05/30 07:54:57;;;;;;;;;;;;;;;12.16;60.59;100317.03;4910224;29;2030;-93
2022/05/30 07:57:50;;;;;;;;;;;;;;;12.17;60.46;100319.50;4921594;29;1636;-94
2022/05/30 08:00:10;;;;;;;;;;;;;;;12.16;60.57;100309.75;4936926;29;2090;-94
2022/05/30 08:02:37;;;;;;;;;;;;;;;12.18;60.40;100318.44;4932758;29;2688;-93
2022/05/30 08:05:04;;;;;;;;;;;;;;;12.17;60.44;100316.78;4906338;29;1825;-94
2022/05/30 08:07:30;;;;;;;;;;;;;;;12.18;60.56;100318.44;4909876;29;1815;-94
2022/05/30 08:09:57;;;;;;;;;;;;;;;12.17;60.73;100316.78;4913971;29;2057;-93
2022/05/30 08:12:23;;;;;;;;;;;;;;;12.17;60.49;100319.50;4902609;29;2147;-93
2022/05/30 08:14:50;;;;;;;;;;;;;;;12.18;60.41;100315.75;4914981;29;2678;-93
2022/05/30 08:17:16;;;;;;;;;;;;;;;12.17;60.68;100311.38;4916637;29;1902;-94
2022/05/30 08:19:43;;;;;;;;;;;;;;;12.19;60.46;100319.25;4917343;29;2186;-93
2022/05/30 08:22:10;;;;;;;;;;;;;;;12.20;60.54;100318.19;4923638;29;2032;-94
2022/05/30 08:24:37;;;;;;;;;;;;;;;12.20;60.51;100320.91;4906549;29;1875;-93
2022/05/30 08:27:03;;;;;;;;;;;;;;;12.20;60.44;100323.59;4908306;29;2492;-93
2022/05/30 08:29:30;;;;;;;;;;;;;;;12.20;60.32;100327.09;4918952;29;2198;-94
2022/05/30 08:31:57;;;;;;;;;;;;;;;12.21;60.60;100338.75;4913227;29;2323;-94
2022/05/30 08:34:23;;;;;;;;;;;;;;;12.21;60.52;100336.88;4935176;29;2051;-94
2022/05/30 08:36:50;;;;;;;;;;;;;;;12.22;60.44;100332.28;4917017;29;2105;-94
2022/05/30 08:42:02;;;;;;;;;;;;;;;12.23;60.63;100339.31;4911233;29;1552;-93
2022/05/30 08:44:29;;;;;;;;;;;;;;;12.23;60.61;100336.63;4902702;29;2090;-95
2022/05/30 08:46:57;;;;;;;;;;;;;;;12.23;60.49;100336.63;4920052;29;2037;-94
2022/05/30 08:49:29;;;;;;;;;;;;;;;12.22;60.44;100337.69;4916736;29;2289;-95
2022/05/30 08:51:55;;;;;;;;;;;;;;;12.23;60.71;100332.03;4908822;29;2106;-93
2022/05/30 08:54:22;;;;;;;;;;;;;;;12.24;60.60;100333.69;4917486;29;2024;-93
2022/05/30 08:56:48;;;;;;;;;;;;;;;12.23;60.70;100329.34;4915838;29;1783;-93
2022/05/30 08:59:15;;;;;;;;;;;;;;;12.25;60.49;100323.72;4928784;29;2376;-92
2022/05/30 09:01:41;;;;;;;;;;;;;;;12.25;60.66;100329.13;4916471;29;2346;-93
2022/05/30 09:04:09;;;;;;;;;;;;;;;12.25;60.73;100326.41;4929876;29;1909;-94
2022/05/30 09:06:35;;;;;;;;;;;;;;;12.26;60.73;100334.31;4921227;29;2791;-93
2022/05/30 09:09:02;;;;;;;;;;;;;;;12.27;60.61;100329.72;4907339;29;2769;-93
2022/05/30 09:11:29;;;;;;;;;;;;;;;12.27;60.64;100335.94;4917535;29;2981;-93
2022/05/30 09:13:55;;;;;;;;;;;;;;;12.27;60.63;100337.81;4914113;29;2322;-93
2022/05/30 09:16:22;;;;;;;;;;;;;;;12.27;60.59;100335.13;4923518;29;2316;-94
2022/05/30 09:18:48;;;;;;;;;;;;;;;12.29;60.69;100332.97;4905656;29;2063;-93
2022/05/30 09:21:15;;;;;;;;;;;;;;;12.30;60.69;100336.53;4914606;29;2304;-93
2022/05/30 09:23:42;;;;;;;;;;;;;;;12.30;60.88;100331.13;4912266;29;2373;-94
2022/05/30 09:26:11;;;;;;;;;;;;;;;12.30;60.72;100339.22;4923505;29;2536;-93
2022/05/30 09:28:39;;;;;;;;;;;;;;;12.32;60.58;100340.59;4920730;29;2233;-93
2022/05/30 09:31:06;;;;;;;;;;;;;;;12.31;60.48;100338.16;4913813;29;2136;-93
2022/05/30 09:33:32;;;;;;;;;;;;;;;12.34;60.68;100343.09;4911858;29;2145;-96
2022/05/30 09:35:58;;;;;;;;;;;;;;;12.33;60.64;100333.34;4909044;29;2190;-93
2022/05/30 09:38:25;;;;;;;;;;;;;;;12.34;60.65;100329.59;4920019;29;2270;-93
2022/05/30 09:40:52;;;;;;;;;;;;;;;12.34;60.73;100327.69;4939835;29;2169;-94
2022/05/30 09:43:18;;;;;;;;;;;;;;;12.35;60.87;100320.41;4922978;29;2642;-93
2022/05/30 09:45:45;;;;;;;;;;;;;;;12.36;60.68;100330.19;4918556;29;1831;-93
2022/05/30 09:48:11;;;;;;;;;;;;;;;12.36;60.76;100331.00;4924612;29;2511;-94
2022/05/30 09:50:38;;;;;;;;;;;;;;;12.36;60.72;100336.38;4922362;29;2199;-94
2022/05/30 09:53:04;;;;;;;;;;;;;;;12.36;60.56;100343.69;4919794;29;2246;-93
2022/05/30 09:55:31;;;;;;;;;;;;;;;12.37;60.61;100342.59;4932308;29;2056;-93
2022/05/30 09:57:58;;;;;;;;;;;;;;;12.37;60.66;100342.59;4921677;29;1725;-93
2022/05/30 10:00:25;;;;;;;;;;;;;;;12.38;60.74;100345.09;4935840;29;2161;-93
2022/05/30 10:02:51;;;;;;;;;;;;;;;12.41;60.66;100346.47;4905112;29;1811;-93
2022/05/30 10:05:18;;;;;;;;;;;;;;;12.40;60.78;100342.13;4906771;29;1587;-95
2022/05/30 10:07:44;;;;;;;;;;;;;;;12.41;60.54;100351.88;4913311;29;1768;-95
2022/05/30 10:10:11;;;;;;;;;;;;;;;12.42;60.64;100359.75;4910759;29;2220;-95
2022/05/30 10:12:38;;;;;;;;;;;;;;;12.43;60.75;100357.88;4920016;29;2221;-95
2022/05/30 10:15:06;;;;;;;;;;;;;;;12.43;60.83;100383.00;4919069;29;1239;-96
2022/05/30 10:17:33;;;;;;;;;;;;;;;12.45;60.82;100405.19;4914922;29;2114;-96
2022/05/30 10:20:00;;;;;;;;;;;;;;;12.46;60.62;100420.34;4938026;29;1312;-94
2022/05/30 10:30:40;;;;;;;;;;;;;;;12.52;60.83;100413.16;4922839;29;2060;-96
2022/05/30 10:33:06;;;;;;;;;;;;;;;12.50;60.77;100381.00;4923156;29;1907;-96
2022/05/30 10:35:33;;;;;;;;;;;;;;;12.52;60.85;100406.94;4922709;29;2162;-96
2022/05/30 10:38:00;;;;;;;;;;;;;;;12.53;60.68;100395.91;4921529;29;2159;-96
2022/05/30 10:40:27;;;;;;;;;;;;;;;12.53;60.71;100404.03;4923365;29;1731;-96
2022/05/30 10:42:53;;;;;;;;;;;;;;;12.55;60.91;100387.56;4911956;29;2158;-96
2022/05/30 10:45:20;;;;;;;;;;;;;;;12.54;61.00;100375.94;4925968;29;2141;-96
2022/05/30 10:47:48;;;;;;;;;;;;;;;12.55;61.00;100376.75;4922184;29;2100;-96
2022/05/30 10:50:14;;;;;;;;;;;;;;;12.55;60.85;100388.38;4922218;29;2107;-96
2022/05/30 10:52:41;;;;;;;;;;;;;;;12.56;61.12;100381.09;4919654;29;2231;-96
2022/05/30 10:55:07;;;;;;;;;;;;;;;12.56;61.05;100395.44;4921649;29;2021;-96
2022/05/30 10:57:34;;;;;;;;;;;;;;;12.57;61.13;100390.88;4924366;29;2476;-96
2022/05/30 11:00:00;;;;;;;;;;;;;;;12.57;61.08;100396.25;4925812;29;1186;-96
2022/05/30 11:02:28;;;;;;;;;;;;;;;12.57;61.13;100391.69;4925325;29;1499;-96
2022/05/30 11:04:55;;;;;;;;;;;;;;;12.60;61.20;100395.78;4924852;29;2213;-96
2022/05/30 11:07:21;;;;;;;;;;;;;;;12.60;61.23;100402.00;4924259;29;2183;-96
2022/05/30 11:09:48;;;;;;;;;;;;;;;12.62;61.36;100404.50;4924685;29;2096;-96
2022/05/30 11:12:15;;;;;;;;;;;;;;;12.61;61.14;100400.13;4914416;29;1911;-96
2022/05/30 11:14:41;;;;;;;;;;;;;;;12.60;61.19;100399.31;4925342;29;2127;-96
2022/05/30 11:17:08;;;;;;;;;;;;;;;12.63;61.43;100409.63;4912913;29;1194;-96
2022/05/30 11:19:34;;;;;;;;;;;;;;;12.62;61.27;100402.59;4923184;29;1574;-96
2022/05/30 11:22:02;;;;;;;;;;;;;;;12.63;61.28;100411.53;4924541;29;2072;-96
2022/05/30 11:24:29;;;;;;;;;;;;;;;12.64;61.28;100415.88;4923945;29;2175;-96
2022/05/30 11:26:55;;;;;;;;;;;;;;;12.64;61.30;100413.97;4940636;29;1465;-96
2022/05/30 11:29:22;;;;;;;;;;;;;;;12.66;61.41;100421.84;4924118;29;1767;-96
2022/05/30 11:31:49;;;;;;;;;;;;;;;12.66;61.49;100421.84;4926302;29;2103;-94
2022/05/30 11:34:16;;;;;;;;;;;;;;;12.67;61.46;100423.50;4913412;29;2236;-96
2022/05/30 11:36:42;;;;;;;;;;;;;;;12.66;61.43;100419.97;4921156;29;2189;-95
2022/05/30 11:39:09;;;;;;;;;;;;;;;12.68;61.31;100422.44;4919047;29;1569;-96
2022/05/30 11:41:35;;;;;;;;;;;;;;;12.68;61.38;100417.88;4919377;29;2106;-96
2022/05/30 11:44:02;;;;;;;;;;;;;;;12.69;61.39;100424.09;4921225;29;2224;-96
2022/05/30 11:46:28;;;;;;;;;;;;;;;12.69;61.24;100416.78;4922573;29;1334;-96
2022/05/30 11:48:55;;;;;;;;;;;;;;;12.71;61.38;100422.78;4922372;29;1215;-96
2022/05/30 11:51:21;;;;;;;;;;;;;;;12.72;61.29;100412.81;4922341;29;1219;-96
2022/05/30 11:53:48;;;;;;;;;;;;;;;12.72;61.36;100420.91;4920100;29;2083;-96
2022/05/30 11:56:14;;;;;;;;;;;;;;;12.73;61.37;100415.28;4925270;29;1313;-96
2022/05/30 11:58:41;;;;;;;;;;;;;;;12.73;61.28;100414.44;4940599;29;1423;-96
2022/05/30 12:01:08;;;;;;;;;;;;;;;12.74;61.26;100408.00;4923593;29;1288;-96
2022/05/30 12:03:34;;;;;;;;;;;;;;;12.75;61.30;100408.81;4918967;29;2179;-96
2022/05/30 12:06:01;;;;;;;;;;;;;;;12.76;61.46;100405.84;4920426;29;2119;-96
2022/05/30 12:08:27;;;;;;;;;;;;;;;12.76;61.29;100411.25;4919710;29;2285;-96
2022/05/30 12:10:54;;;;;;;;;;;;;;;12.78;61.36;100413.75;4916737;29;1906;-96
2022/05/30 12:13:20;;;;;;;;;;;;;;;12.78;61.34;100432.66;4917667;29;2087;-96
2022/05/30 12:15:47;;;;;;;;;;;;;;;12.80;61.60;100436.78;4915684;29;1523;-96
2022/05/30 12:23:51;;;;;;;;;;;;;;;12.81;61.59;100448.41;4906181;29;1878;-96
2022/05/30 12:26:19;;;;;;;;;;;;;;;12.81;61.50;100443.81;4904407;29;2459;-96
2022/05/30 12:28:46;;;;;;;;;;;;;;;12.82;61.75;100464.34;4908393;29;2107;-96
2022/05/30 12:31:12;;;;;;;;;;;;;;;12.83;61.43;100470.59;4913627;29;2123;-96
2022/05/30 12:33:39;;;;;;;;;;;;;;;12.84;61.68;100472.25;4918241;29;2369;-96
2022/05/30 12:36:05;;;;;;;;;;;;;;;12.85;61.55;100477.44;4909643;29;1902;-96
2022/05/30 12:38:32;;;;;;;;;;;;;;;12.86;61.64;100475.53;4917713;29;2114;-96
2022/05/30 12:40:59;;;;;;;;;;;;;;;12.86;61.70;100468.25;4911875;29;2163;-96
2022/05/30 12:43:27;;;;;;;;;;;;;;;12.86;61.71;100465.53;4919671;29;2111;-96
2022/05/30 12:45:54;;;;;;;;;;;;;;;12.86;61.60;100460.16;4922763;29;2153;-96
2022/05/30 12:48:20;;;;;;;;;;;;;;;12.87;61.57;100463.66;4923471;29;2368;-96
2022/05/30 12:50:47;;;;;;;;;;;;;;;12.87;61.57;100459.06;4924134;29;1165;-96
2022/05/30 12:53:14;;;;;;;;;;;;;;;12.89;61.59;100458.84;4922372;29;2154;-96
2022/05/30 12:55:40;;;;;;;;;;;;;;;12.89;61.64;100458.84;4920187;29;1503;-96
2022/05/30 12:58:10;;;;;;;;;;;;;;;12.90;61.65;100465.88;4921769;29;1947;-96
2022/05/30 13:00:37;;;;;;;;;;;;;;;12.90;61.82;100466.72;4918943;29;2213;-96
2022/05/30 13:03:04;;;;;;;;;;;;;;;12.90;61.76;100469.41;4916043;29;2344;-96
2022/05/30 13:05:31;;;;;;;;;;;;;;;12.90;61.87;100471.28;4924950;29;2077;-96
2022/05/30 13:07:58;;;;;;;;;;;;;;;12.91;61.69;100481.03;4930407;29;2218;-96
2022/05/30 13:10:25;;;;;;;;;;;;;;;12.91;61.73;100484.59;4917523;29;2068;-96
2022/05/30 13:12:52;;;;;;;;;;;;;;;12.92;61.86;100474.59;4923301;29;1972;-96